sensor_id;sensor_type;location;lat;lon;timestamp;P1;durP1;ratioP1;P2;durP2;ratioP2
68353;SDS011;55274;43.060;25.618;2024-01-11T00:00:32;24.40;;;11.00;;
68353;SDS011;55274;43.060;25.618;2024-01-11T00:02:58;23.63;;;11.90;;
68353;SDS011;55274;43.060;25.618;2024-01-11T00:05:24;24.98;;;10.93;;
68353;SDS011;55274;43.060;25.618;2024-01-11T00:07:50;23.98;;;10.88;;
68353;SDS011;55274;43.060;25.618;2024-01-11T00:10:16;17.92;;;9.95;;
68353;SDS011;55274;43.060;25.618;2024-01-11T00:12:42;18.85;;;8.85;;
68353;SDS011;55274;43.060;25.618;2024-01-11T00:15:08;17.85;;;9.63;;
68353;SDS011;55274;43.060;25.618;2024-01-11T00:17:34;21.45;;;9.20;;
68353;SDS011;55274;43.060;25.618;2024-01-11T00:20:01;20.45;;;9.95;;
68353;SDS011;55274;43.060;25.618;2024-01-11T00:22:27;21.73;;;10.00;;
68353;SDS011;55274;43.060;25.618;2024-01-11T00:24:53;22.83;;;10.43;;
68353;SDS011;55274;43.060;25.618;2024-01-11T00:27:18;18.63;;;9.18;;
68353;SDS011;55274;43.060;25.618;2024-01-11T00:29:44;24.23;;;9.07;;
68353;SDS011;55274;43.060;25.618;2024-01-11T00:32:10;14.57;;;8.65;;
68353;SDS011;55274;43.060;25.618;2024-01-11T00:34:36;17.35;;;8.27;;
68353;SDS011;55274;43.060;25.618;2024-01-11T00:37:02;16.27;;;8.73;;
68353;SDS011;55274;43.060;25.618;2024-01-11T00:39:28;17.65;;;8.75;;
68353;SDS011;55274;43.060;25.618;2024-01-11T00:41:54;17.23;;;9.48;;
68353;SDS011;55274;43.060;25.618;2024-01-11T00:44:20;24.73;;;10.23;;
68353;SDS011;55274;43.060;25.618;2024-01-11T00:46:46;19.92;;;9.63;;
68353;SDS011;55274;43.060;25.618;2024-01-11T00:49:12;21.20;;;9.30;;
68353;SDS011;55274;43.060;25.618;2024-01-11T00:51:38;22.83;;;9.98;;
68353;SDS011;55274;43.060;25.618;2024-01-11T00:54:03;23.08;;;9.77;;
68353;SDS011;55274;43.060;25.618;2024-01-11T00:56:29;18.92;;;9.60;;
68353;SDS011;55274;43.060;25.618;2024-01-11T00:58:55;22.23;;;9.23;;
68353;SDS011;55274;43.060;25.618;2024-01-11T01:01:21;19.55;;;8.95;;
68353;SDS011;55274;43.060;25.618;2024-01-11T01:03:47;21.45;;;7.97;;
68353;SDS011;55274;43.060;25.618;2024-01-11T01:06:12;18.40;;;8.98;;
68353;SDS011;55274;43.060;25.618;2024-01-11T01:08:38;16.70;;;8.13;;
68353;SDS011;55274;43.060;25.618;2024-01-11T01:11:04;18.92;;;8.77;;
68353;SDS011;55274;43.060;25.618;2024-01-11T01:13:30;21.70;;;9.70;;
68353;SDS011;55274;43.060;25.618;2024-01-11T01:15:56;19.30;;;9.57;;
68353;SDS011;55274;43.060;25.618;2024-01-11T01:18:21;23.77;;;9.95;;
68353;SDS011;55274;43.060;25.618;2024-01-11T01:20:47;23.15;;;10.68;;
68353;SDS011;55274;43.060;25.618;2024-01-11T01:23:13;22.98;;;9.95;;
68353;SDS011;55274;43.060;25.618;2024-01-11T01:25:39;27.70;;;9.98;;
68353;SDS011;55274;43.060;25.618;2024-01-11T01:28:05;19.20;;;10.10;;
68353;SDS011;55274;43.060;25.618;2024-01-11T01:30:30;22.90;;;9.23;;
68353;SDS011;55274;43.060;25.618;2024-01-11T01:32:56;23.00;;;9.57;;
68353;SDS011;55274;43.060;25.618;2024-01-11T01:35:22;19.67;;;9.07;;
68353;SDS011;55274;43.060;25.618;2024-01-11T01:37:48;30.33;;;12.13;;
68353;SDS011;55274;43.060;25.618;2024-01-11T01:40:14;23.70;;;11.40;;
68353;SDS011;55274;43.060;25.618;2024-01-11T01:42:43;20.77;;;9.73;;
68353;SDS011;55274;43.060;25.618;2024-01-11T01:45:10;28.45;;;10.30;;
68353;SDS011;55274;43.060;25.618;2024-01-11T01:47:36;19.25;;;9.25;;
68353;SDS011;55274;43.060;25.618;2024-01-11T01:50:05;19.80;;;9.43;;
68353;SDS011;55274;43.060;25.618;2024-01-11T01:52:32;20.85;;;9.35;;
68353;SDS011;55274;43.060;25.618;2024-01-11T01:54:59;20.75;;;9.27;;
68353;SDS011;55274;43.060;25.618;2024-01-11T01:57:27;17.02;;;8.82;;
68353;SDS011;55274;43.060;25.618;2024-01-11T01:59:54;17.88;;;8.55;;
68353;SDS011;55274;43.060;25.618;2024-01-11T02:02:20;18.92;;;8.80;;
68353;SDS011;55274;43.060;25.618;2024-01-11T02:04:47;22.83;;;9.82;;
68353;SDS011;55274;43.060;25.618;2024-01-11T02:07:13;18.42;;;9.48;;
68353;SDS011;55274;43.060;25.618;2024-01-11T02:09:39;21.23;;;11.10;;
68353;SDS011;55274;43.060;25.618;2024-01-11T02:12:06;21.83;;;10.35;;
68353;SDS011;55274;43.060;25.618;2024-01-11T02:14:37;24.08;;;10.45;;
68353;SDS011;55274;43.060;25.618;2024-01-11T02:17:03;26.73;;;10.98;;
68353;SDS011;55274;43.060;25.618;2024-01-11T02:19:28;25.10;;;10.15;;
68353;SDS011;55274;43.060;25.618;2024-01-11T02:21:54;29.08;;;12.13;;
68353;SDS011;55274;43.060;25.618;2024-01-11T02:24:25;27.65;;;11.10;;
68353;SDS011;55274;43.060;25.618;2024-01-11T02:27:00;25.33;;;11.55;;
68353;SDS011;55274;43.060;25.618;2024-01-11T02:29:27;26.63;;;11.70;;
68353;SDS011;55274;43.060;25.618;2024-01-11T02:31:54;23.38;;;11.05;;
68353;SDS011;55274;43.060;25.618;2024-01-11T02:34:20;20.67;;;10.07;;
68353;SDS011;55274;43.060;25.618;2024-01-11T02:36:48;26.52;;;9.82;;
68353;SDS011;55274;43.060;25.618;2024-01-11T02:39:15;25.25;;;10.93;;
68353;SDS011;55274;43.060;25.618;2024-01-11T02:41:43;56.30;;;52.97;;
68353;SDS011;55274;43.060;25.618;2024-01-11T02:44:09;24.55;;;11.35;;
68353;SDS011;55274;43.060;25.618;2024-01-11T02:46:35;24.83;;;10.88;;
68353;SDS011;55274;43.060;25.618;2024-01-11T02:49:01;25.20;;;11.73;;
68353;SDS011;55274;43.060;25.618;2024-01-11T02:51:27;21.38;;;9.15;;
68353;SDS011;55274;43.060;25.618;2024-01-11T02:53:53;28.20;;;11.63;;
68353;SDS011;55274;43.060;25.618;2024-01-11T02:56:19;25.05;;;11.52;;
68353;SDS011;55274;43.060;25.618;2024-01-11T02:58:47;26.17;;;11.20;;
68353;SDS011;55274;43.060;25.618;2024-01-11T03:01:13;27.00;;;10.23;;
68353;SDS011;55274;43.060;25.618;2024-01-11T03:03:39;26.38;;;11.40;;
68353;SDS011;55274;43.060;25.618;2024-01-11T03:06:04;25.58;;;10.73;;
68353;SDS011;55274;43.060;25.618;2024-01-11T03:08:31;29.23;;;11.80;;
68353;SDS011;55274;43.060;25.618;2024-01-11T03:10:56;32.72;;;12.82;;
68353;SDS011;55274;43.060;25.618;2024-01-11T03:13:22;27.20;;;11.05;;
68353;SDS011;55274;43.060;25.618;2024-01-11T03:15:48;24.30;;;11.20;;
68353;SDS011;55274;43.060;25.618;2024-01-11T03:18:14;32.33;;;12.40;;
68353;SDS011;55274;43.060;25.618;2024-01-11T03:20:40;36.25;;;14.10;;
68353;SDS011;55274;43.060;25.618;2024-01-11T03:23:06;34.72;;;13.23;;
68353;SDS011;55274;43.060;25.618;2024-01-11T03:25:31;32.33;;;12.85;;
68353;SDS011;55274;43.060;25.618;2024-01-11T03:27:57;25.30;;;11.15;;
68353;SDS011;55274;43.060;25.618;2024-01-11T03:30:26;24.50;;;10.95;;
68353;SDS011;55274;43.060;25.618;2024-01-11T03:32:53;28.35;;;11.98;;
68353;SDS011;55274;43.060;25.618;2024-01-11T03:35:19;24.95;;;11.98;;
68353;SDS011;55274;43.060;25.618;2024-01-11T03:37:45;29.40;;;12.52;;
68353;SDS011;55274;43.060;25.618;2024-01-11T03:40:11;36.45;;;12.07;;
68353;SDS011;55274;43.060;25.618;2024-01-11T03:42:37;32.30;;;13.13;;
68353;SDS011;55274;43.060;25.618;2024-01-11T03:45:03;37.17;;;14.63;;
68353;SDS011;55274;43.060;25.618;2024-01-11T03:47:29;28.25;;;13.68;;
68353;SDS011;55274;43.060;25.618;2024-01-11T03:49:55;31.90;;;12.73;;
68353;SDS011;55274;43.060;25.618;2024-01-11T03:52:21;32.08;;;12.35;;
68353;SDS011;55274;43.060;25.618;2024-01-11T03:54:47;29.50;;;13.18;;
68353;SDS011;55274;43.060;25.618;2024-01-11T03:57:13;30.58;;;14.13;;
68353;SDS011;55274;43.060;25.618;2024-01-11T03:59:40;24.45;;;12.90;;
68353;SDS011;55274;43.060;25.618;2024-01-11T04:02:06;32.67;;;13.00;;
68353;SDS011;55274;43.060;25.618;2024-01-11T04:04:32;28.55;;;12.95;;
68353;SDS011;55274;43.060;25.618;2024-01-11T04:06:58;30.20;;;13.63;;
68353;SDS011;55274;43.060;25.618;2024-01-11T04:09:24;35.10;;;13.27;;
68353;SDS011;55274;43.060;25.618;2024-01-11T04:11:50;28.50;;;12.65;;
68353;SDS011;55274;43.060;25.618;2024-01-11T04:14:16;25.52;;;13.45;;
68353;SDS011;55274;43.060;25.618;2024-01-11T04:16:44;30.98;;;13.02;;
68353;SDS011;55274;43.060;25.618;2024-01-11T04:19:10;28.35;;;12.75;;
68353;SDS011;55274;43.060;25.618;2024-01-11T04:21:36;25.58;;;10.80;;
68353;SDS011;55274;43.060;25.618;2024-01-11T04:24:05;33.80;;;11.70;;
68353;SDS011;55274;43.060;25.618;2024-01-11T04:26:31;24.20;;;10.55;;
68353;SDS011;55274;43.060;25.618;2024-01-11T04:28:57;25.95;;;10.85;;
68353;SDS011;55274;43.060;25.618;2024-01-11T04:31:25;27.60;;;10.90;;
68353;SDS011;55274;43.060;25.618;2024-01-11T04:33:51;25.80;;;11.85;;
68353;SDS011;55274;43.060;25.618;2024-01-11T04:36:17;23.25;;;11.07;;
68353;SDS011;55274;43.060;25.618;2024-01-11T04:38:43;22.25;;;11.48;;
68353;SDS011;55274;43.060;25.618;2024-01-11T04:41:13;23.23;;;10.48;;
68353;SDS011;55274;43.060;25.618;2024-01-11T04:43:40;24.27;;;10.07;;
68353;SDS011;55274;43.060;25.618;2024-01-11T04:46:16;22.20;;;10.02;;
68353;SDS011;55274;43.060;25.618;2024-01-11T04:48:44;20.45;;;8.65;;
68353;SDS011;55274;43.060;25.618;2024-01-11T04:51:12;27.75;;;9.82;;
68353;SDS011;55274;43.060;25.618;2024-01-11T04:53:38;26.60;;;12.45;;
68353;SDS011;55274;43.060;25.618;2024-01-11T04:56:09;25.45;;;12.35;;
68353;SDS011;55274;43.060;25.618;2024-01-11T04:58:36;31.63;;;12.95;;
68353;SDS011;55274;43.060;25.618;2024-01-11T05:01:04;26.60;;;10.55;;
68353;SDS011;55274;43.060;25.618;2024-01-11T05:03:30;25.15;;;11.27;;
68353;SDS011;55274;43.060;25.618;2024-01-11T05:06:00;22.45;;;11.05;;
68353;SDS011;55274;43.060;25.618;2024-01-11T05:08:26;27.10;;;11.25;;
68353;SDS011;55274;43.060;25.618;2024-01-11T05:10:53;22.15;;;10.77;;
68353;SDS011;55274;43.060;25.618;2024-01-11T05:13:18;25.63;;;9.10;;
68353;SDS011;55274;43.060;25.618;2024-01-11T05:15:45;40.10;;;17.55;;
68353;SDS011;55274;43.060;25.618;2024-01-11T05:18:11;27.35;;;11.88;;
68353;SDS011;55274;43.060;25.618;2024-01-11T05:20:37;23.88;;;11.70;;
68353;SDS011;55274;43.060;25.618;2024-01-11T05:23:03;23.27;;;11.30;;
68353;SDS011;55274;43.060;25.618;2024-01-11T05:25:29;27.52;;;12.30;;
68353;SDS011;55274;43.060;25.618;2024-01-11T05:28:02;25.13;;;10.85;;
68353;SDS011;55274;43.060;25.618;2024-01-11T05:30:29;29.38;;;11.77;;
68353;SDS011;55274;43.060;25.618;2024-01-11T05:32:55;31.90;;;12.85;;
68353;SDS011;55274;43.060;25.618;2024-01-11T05:35:21;28.60;;;11.73;;
68353;SDS011;55274;43.060;25.618;2024-01-11T05:37:49;28.63;;;12.57;;
68353;SDS011;55274;43.060;25.618;2024-01-11T05:40:15;29.23;;;12.90;;
68353;SDS011;55274;43.060;25.618;2024-01-11T05:42:41;29.90;;;13.45;;
68353;SDS011;55274;43.060;25.618;2024-01-11T05:45:07;30.27;;;12.73;;
68353;SDS011;55274;43.060;25.618;2024-01-11T05:47:33;32.42;;;13.07;;
68353;SDS011;55274;43.060;25.618;2024-01-11T05:49:59;34.50;;;14.52;;
68353;SDS011;55274;43.060;25.618;2024-01-11T05:52:25;38.63;;;13.23;;
68353;SDS011;55274;43.060;25.618;2024-01-11T05:54:50;37.15;;;14.00;;
68353;SDS011;55274;43.060;25.618;2024-01-11T05:57:16;28.70;;;12.73;;
68353;SDS011;55274;43.060;25.618;2024-01-11T05:59:45;25.98;;;12.15;;
68353;SDS011;55274;43.060;25.618;2024-01-11T06:02:11;23.10;;;11.40;;
68353;SDS011;55274;43.060;25.618;2024-01-11T06:04:38;30.70;;;12.68;;
68353;SDS011;55274;43.060;25.618;2024-01-11T06:07:04;35.40;;;13.38;;
68353;SDS011;55274;43.060;25.618;2024-01-11T06:09:30;27.85;;;11.45;;
68353;SDS011;55274;43.060;25.618;2024-01-11T06:11:56;37.03;;;14.38;;
68353;SDS011;55274;43.060;25.618;2024-01-11T06:14:22;35.40;;;13.18;;
68353;SDS011;55274;43.060;25.618;2024-01-11T06:16:48;32.10;;;12.60;;
68353;SDS011;55274;43.060;25.618;2024-01-11T06:19:13;28.58;;;12.10;;
68353;SDS011;55274;43.060;25.618;2024-01-11T06:21:39;26.58;;;11.55;;
68353;SDS011;55274;43.060;25.618;2024-01-11T06:24:06;23.52;;;11.02;;
68353;SDS011;55274;43.060;25.618;2024-01-11T06:26:31;27.55;;;12.27;;
68353;SDS011;55274;43.060;25.618;2024-01-11T06:28:57;27.17;;;12.45;;
68353;SDS011;55274;43.060;25.618;2024-01-11T06:31:23;24.05;;;9.88;;
68353;SDS011;55274;43.060;25.618;2024-01-11T06:33:49;23.10;;;12.25;;
68353;SDS011;55274;43.060;25.618;2024-01-11T06:36:15;24.63;;;12.18;;
68353;SDS011;55274;43.060;25.618;2024-01-11T06:38:41;24.23;;;12.10;;
68353;SDS011;55274;43.060;25.618;2024-01-11T06:41:06;24.23;;;11.63;;
68353;SDS011;55274;43.060;25.618;2024-01-11T06:43:32;30.90;;;13.70;;
68353;SDS011;55274;43.060;25.618;2024-01-11T06:46:02;24.38;;;12.15;;
68353;SDS011;55274;43.060;25.618;2024-01-11T06:48:31;29.10;;;12.55;;
68353;SDS011;55274;43.060;25.618;2024-01-11T06:51:00;27.00;;;12.85;;
68353;SDS011;55274;43.060;25.618;2024-01-11T06:53:25;40.13;;;15.85;;
68353;SDS011;55274;43.060;25.618;2024-01-11T06:55:51;38.75;;;14.82;;
68353;SDS011;55274;43.060;25.618;2024-01-11T06:58:20;37.83;;;15.75;;
68353;SDS011;55274;43.060;25.618;2024-01-11T07:00:48;38.40;;;16.45;;
68353;SDS011;55274;43.060;25.618;2024-01-11T07:03:14;32.65;;;14.55;;
68353;SDS011;55274;43.060;25.618;2024-01-11T07:05:40;36.53;;;15.50;;
68353;SDS011;55274;43.060;25.618;2024-01-11T07:08:07;32.33;;;15.27;;
68353;SDS011;55274;43.060;25.618;2024-01-11T07:10:33;38.13;;;15.90;;
68353;SDS011;55274;43.060;25.618;2024-01-11T07:12:59;41.28;;;15.23;;
68353;SDS011;55274;43.060;25.618;2024-01-11T07:15:25;39.47;;;16.80;;
68353;SDS011;55274;43.060;25.618;2024-01-11T07:17:50;48.53;;;18.25;;
68353;SDS011;55274;43.060;25.618;2024-01-11T07:20:18;45.65;;;17.42;;
68353;SDS011;55274;43.060;25.618;2024-01-11T07:22:44;61.75;;;22.75;;
68353;SDS011;55274;43.060;25.618;2024-01-11T07:25:10;57.80;;;22.00;;
68353;SDS011;55274;43.060;25.618;2024-01-11T07:27:36;62.67;;;23.13;;
68353;SDS011;55274;43.060;25.618;2024-01-11T07:30:02;60.45;;;24.67;;
68353;SDS011;55274;43.060;25.618;2024-01-11T07:32:28;66.90;;;26.95;;
68353;SDS011;55274;43.060;25.618;2024-01-11T07:34:54;70.18;;;25.25;;
68353;SDS011;55274;43.060;25.618;2024-01-11T07:37:19;72.85;;;29.80;;
68353;SDS011;55274;43.060;25.618;2024-01-11T07:39:46;74.97;;;28.92;;
68353;SDS011;55274;43.060;25.618;2024-01-11T07:42:11;72.32;;;28.25;;
68353;SDS011;55274;43.060;25.618;2024-01-11T07:44:39;73.32;;;27.95;;
68353;SDS011;55274;43.060;25.618;2024-01-11T07:47:05;65.53;;;27.10;;
68353;SDS011;55274;43.060;25.618;2024-01-11T07:49:31;73.32;;;29.77;;
68353;SDS011;55274;43.060;25.618;2024-01-11T07:51:57;70.85;;;27.48;;
68353;SDS011;55274;43.060;25.618;2024-01-11T07:54:23;60.97;;;26.60;;
68353;SDS011;55274;43.060;25.618;2024-01-11T07:56:48;58.70;;;23.80;;
68353;SDS011;55274;43.060;25.618;2024-01-11T07:59:14;63.67;;;24.80;;
68353;SDS011;55274;43.060;25.618;2024-01-11T08:01:40;62.22;;;25.85;;
68353;SDS011;55274;43.060;25.618;2024-01-11T08:04:06;61.70;;;24.92;;
68353;SDS011;55274;43.060;25.618;2024-01-11T08:06:32;50.05;;;20.85;;
68353;SDS011;55274;43.060;25.618;2024-01-11T08:08:58;57.38;;;26.05;;
68353;SDS011;55274;43.060;25.618;2024-01-11T08:11:23;76.15;;;30.88;;
68353;SDS011;55274;43.060;25.618;2024-01-11T08:13:49;79.85;;;33.25;;
68353;SDS011;55274;43.060;25.618;2024-01-11T08:16:16;75.05;;;31.20;;
68353;SDS011;55274;43.060;25.618;2024-01-11T08:18:43;70.05;;;29.48;;
68353;SDS011;55274;43.060;25.618;2024-01-11T08:21:09;60.47;;;24.27;;
68353;SDS011;55274;43.060;25.618;2024-01-11T08:23:37;65.15;;;24.90;;
68353;SDS011;55274;43.060;25.618;2024-01-11T08:26:09;53.17;;;22.13;;
68353;SDS011;55274;43.060;25.618;2024-01-11T08:28:36;54.88;;;23.65;;
68353;SDS011;55274;43.060;25.618;2024-01-11T08:31:02;54.88;;;22.77;;
68353;SDS011;55274;43.060;25.618;2024-01-11T08:33:30;55.08;;;24.42;;
68353;SDS011;55274;43.060;25.618;2024-01-11T08:35:56;58.17;;;24.58;;
68353;SDS011;55274;43.060;25.618;2024-01-11T08:38:22;61.28;;;23.20;;
68353;SDS011;55274;43.060;25.618;2024-01-11T08:40:49;52.05;;;23.40;;
68353;SDS011;55274;43.060;25.618;2024-01-11T08:43:15;42.05;;;19.40;;
68353;SDS011;55274;43.060;25.618;2024-01-11T08:45:41;38.42;;;17.25;;
68353;SDS011;55274;43.060;25.618;2024-01-11T08:48:08;61.58;;;23.02;;
68353;SDS011;55274;43.060;25.618;2024-01-11T08:50:35;81.72;;;31.25;;
68353;SDS011;55274;43.060;25.618;2024-01-11T08:53:00;87.13;;;34.25;;
68353;SDS011;55274;43.060;25.618;2024-01-11T08:55:26;86.80;;;34.88;;
68353;SDS011;55274;43.060;25.618;2024-01-11T08:57:52;88.07;;;32.03;;
68353;SDS011;55274;43.060;25.618;2024-01-11T09:00:18;82.90;;;31.13;;
68353;SDS011;55274;43.060;25.618;2024-01-11T09:02:44;89.15;;;35.10;;
68353;SDS011;55274;43.060;25.618;2024-01-11T09:05:11;93.50;;;33.47;;
68353;SDS011;55274;43.060;25.618;2024-01-11T09:07:39;52.25;;;19.50;;
68353;SDS011;55274;43.060;25.618;2024-01-11T09:10:05;43.92;;;18.08;;
68353;SDS011;55274;43.060;25.618;2024-01-11T09:12:34;41.45;;;17.13;;
68353;SDS011;55274;43.060;25.618;2024-01-11T09:15:00;51.42;;;20.90;;
68353;SDS011;55274;43.060;25.618;2024-01-11T09:17:26;102.88;;;41.78;;
68353;SDS011;55274;43.060;25.618;2024-01-11T09:19:51;91.78;;;39.33;;
68353;SDS011;55274;43.060;25.618;2024-01-11T09:22:17;91.38;;;39.95;;
68353;SDS011;55274;43.060;25.618;2024-01-11T09:24:43;66.65;;;29.95;;
68353;SDS011;55274;43.060;25.618;2024-01-11T09:27:09;69.93;;;29.08;;
68353;SDS011;55274;43.060;25.618;2024-01-11T09:29:35;59.72;;;27.83;;
68353;SDS011;55274;43.060;25.618;2024-01-11T09:32:00;72.10;;;33.10;;
68353;SDS011;55274;43.060;25.618;2024-01-11T09:34:26;76.47;;;34.17;;
68353;SDS011;55274;43.060;25.618;2024-01-11T09:36:52;87.03;;;35.38;;
68353;SDS011;55274;43.060;25.618;2024-01-11T09:39:18;81.35;;;35.10;;
68353;SDS011;55274;43.060;25.618;2024-01-11T09:41:48;77.05;;;31.75;;
68353;SDS011;55274;43.060;25.618;2024-01-11T09:44:21;67.05;;;28.73;;
68353;SDS011;55274;43.060;25.618;2024-01-11T09:46:46;60.60;;;27.73;;
68353;SDS011;55274;43.060;25.618;2024-01-11T09:49:12;53.72;;;24.98;;
68353;SDS011;55274;43.060;25.618;2024-01-11T09:51:39;48.60;;;22.38;;
68353;SDS011;55274;43.060;25.618;2024-01-11T09:54:09;44.35;;;22.25;;
68353;SDS011;55274;43.060;25.618;2024-01-11T09:56:35;46.63;;;23.73;;
68353;SDS011;55274;43.060;25.618;2024-01-11T09:59:02;43.92;;;20.60;;
68353;SDS011;55274;43.060;25.618;2024-01-11T10:01:32;44.88;;;21.67;;
68353;SDS011;55274;43.060;25.618;2024-01-11T10:03:58;44.28;;;20.75;;
68353;SDS011;55274;43.060;25.618;2024-01-11T10:06:25;42.38;;;20.17;;
68353;SDS011;55274;43.060;25.618;2024-01-11T10:08:52;38.60;;;19.98;;
68353;SDS011;55274;43.060;25.618;2024-01-11T10:11:18;38.70;;;19.38;;
68353;SDS011;55274;43.060;25.618;2024-01-11T10:13:43;42.08;;;19.45;;
68353;SDS011;55274;43.060;25.618;2024-01-11T10:16:09;35.95;;;18.70;;
68353;SDS011;55274;43.060;25.618;2024-01-11T10:18:40;40.65;;;17.52;;
68353;SDS011;55274;43.060;25.618;2024-01-11T10:21:07;43.17;;;19.73;;
68353;SDS011;55274;43.060;25.618;2024-01-11T10:23:35;39.45;;;19.90;;
68353;SDS011;55274;43.060;25.618;2024-01-11T10:26:02;43.90;;;19.35;;
68353;SDS011;55274;43.060;25.618;2024-01-11T10:28:28;42.30;;;18.48;;
68353;SDS011;55274;43.060;25.618;2024-01-11T10:30:54;40.22;;;19.30;;
68353;SDS011;55274;43.060;25.618;2024-01-11T10:33:21;41.95;;;19.63;;
68353;SDS011;55274;43.060;25.618;2024-01-11T10:35:47;40.63;;;20.50;;
68353;SDS011;55274;43.060;25.618;2024-01-11T10:38:16;45.22;;;18.75;;
68353;SDS011;55274;43.060;25.618;2024-01-11T10:40:43;43.50;;;19.30;;
68353;SDS011;55274;43.060;25.618;2024-01-11T10:43:09;41.67;;;19.38;;
68353;SDS011;55274;43.060;25.618;2024-01-11T10:45:40;40.08;;;18.98;;
68353;SDS011;55274;43.060;25.618;2024-01-11T10:48:12;48.20;;;19.60;;
68353;SDS011;55274;43.060;25.618;2024-01-11T10:50:41;37.88;;;18.27;;
68353;SDS011;55274;43.060;25.618;2024-01-11T10:53:12;47.65;;;19.92;;
68353;SDS011;55274;43.060;25.618;2024-01-11T10:55:42;31.98;;;16.00;;
68353;SDS011;55274;43.060;25.618;2024-01-11T10:58:10;34.28;;;15.45;;
68353;SDS011;55274;43.060;25.618;2024-01-11T11:00:36;30.40;;;14.90;;
68353;SDS011;55274;43.060;25.618;2024-01-11T11:03:03;34.47;;;16.00;;
68353;SDS011;55274;43.060;25.618;2024-01-11T11:05:31;27.10;;;12.68;;
68353;SDS011;55274;43.060;25.618;2024-01-11T11:08:00;24.23;;;12.32;;
68353;SDS011;55274;43.060;25.618;2024-01-11T11:10:27;27.65;;;12.25;;
68353;SDS011;55274;43.060;25.618;2024-01-11T11:12:54;28.23;;;13.35;;
68353;SDS011;55274;43.060;25.618;2024-01-11T11:17:52;20.02;;;10.05;;
68353;SDS011;55274;43.060;25.618;2024-01-11T11:20:18;25.38;;;10.95;;
68353;SDS011;55274;43.060;25.618;2024-01-11T11:22:48;18.85;;;8.95;;
68353;SDS011;55274;43.060;25.618;2024-01-11T11:25:39;24.77;;;8.05;;
68353;SDS011;55274;43.060;25.618;2024-01-11T11:28:06;14.70;;;7.07;;
68353;SDS011;55274;43.060;25.618;2024-01-11T11:30:41;19.58;;;8.75;;
68353;SDS011;55274;43.060;25.618;2024-01-11T11:33:09;20.92;;;8.80;;
68353;SDS011;55274;43.060;25.618;2024-01-11T11:35:54;18.38;;;8.75;;
68353;SDS011;55274;43.060;25.618;2024-01-11T11:38:27;12.95;;;7.65;;
68353;SDS011;55274;43.060;25.618;2024-01-11T11:40:54;14.73;;;7.40;;
68353;SDS011;55274;43.060;25.618;2024-01-11T11:43:21;17.33;;;7.03;;
68353;SDS011;55274;43.060;25.618;2024-01-11T11:45:48;15.98;;;7.38;;
68353;SDS011;55274;43.060;25.618;2024-01-11T11:53:36;18.33;;;9.27;;
68353;SDS011;55274;43.060;25.618;2024-01-11T11:56:02;24.67;;;11.00;;
68353;SDS011;55274;43.060;25.618;2024-01-11T11:58:29;20.60;;;9.98;;
68353;SDS011;55274;43.060;25.618;2024-01-11T12:00:56;20.30;;;10.40;;
68353;SDS011;55274;43.060;25.618;2024-01-11T12:03:28;16.98;;;9.43;;
68353;SDS011;55274;43.060;25.618;2024-01-11T12:05:55;20.40;;;9.90;;
68353;SDS011;55274;43.060;25.618;2024-01-11T12:08:24;18.58;;;9.75;;
68353;SDS011;55274;43.060;25.618;2024-01-11T12:10:50;17.98;;;9.98;;
68353;SDS011;55274;43.060;25.618;2024-01-11T12:13:17;21.33;;;10.13;;
68353;SDS011;55274;43.060;25.618;2024-01-11T12:15:43;19.65;;;10.25;;
68353;SDS011;55274;43.060;25.618;2024-01-11T12:18:09;18.65;;;8.52;;
68353;SDS011;55274;43.060;25.618;2024-01-11T12:20:35;17.30;;;9.63;;
68353;SDS011;55274;43.060;25.618;2024-01-11T12:23:01;15.05;;;8.88;;
68353;SDS011;55274;43.060;25.618;2024-01-11T12:25:28;19.45;;;8.70;;
68353;SDS011;55274;43.060;25.618;2024-01-11T12:27:57;20.38;;;9.48;;
68353;SDS011;55274;43.060;25.618;2024-01-11T12:30:23;24.35;;;10.50;;
68353;SDS011;55274;43.060;25.618;2024-01-11T12:32:55;16.73;;;9.63;;
68353;SDS011;55274;43.060;25.618;2024-01-11T12:35:21;29.63;;;10.57;;
68353;SDS011;55274;43.060;25.618;2024-01-11T12:38:01;20.17;;;10.68;;
68353;SDS011;55274;43.060;25.618;2024-01-11T12:40:31;21.35;;;10.15;;
68353;SDS011;55274;43.060;25.618;2024-01-11T12:43:05;16.20;;;8.90;;
68353;SDS011;55274;43.060;25.618;2024-01-11T12:45:32;16.92;;;8.80;;
68353;SDS011;55274;43.060;25.618;2024-01-11T12:47:59;19.77;;;9.18;;
68353;SDS011;55274;43.060;25.618;2024-01-11T12:50:26;17.25;;;8.98;;
68353;SDS011;55274;43.060;25.618;2024-01-11T12:55:33;15.05;;;8.25;;
68353;SDS011;55274;43.060;25.618;2024-01-11T12:58:05;19.55;;;9.32;;
68353;SDS011;55274;43.060;25.618;2024-01-11T13:00:32;18.17;;;9.05;;
68353;SDS011;55274;43.060;25.618;2024-01-11T13:02:58;20.67;;;9.30;;
68353;SDS011;55274;43.060;25.618;2024-01-11T13:05:24;17.50;;;8.75;;
68353;SDS011;55274;43.060;25.618;2024-01-11T13:07:51;17.27;;;8.18;;
68353;SDS011;55274;43.060;25.618;2024-01-11T13:10:16;19.50;;;8.80;;
68353;SDS011;55274;43.060;25.618;2024-01-11T13:12:42;13.20;;;7.88;;
68353;SDS011;55274;43.060;25.618;2024-01-11T13:15:08;16.50;;;8.20;;
68353;SDS011;55274;43.060;25.618;2024-01-11T13:17:34;15.18;;;6.95;;
68353;SDS011;55274;43.060;25.618;2024-01-11T13:20:00;14.43;;;7.53;;
68353;SDS011;55274;43.060;25.618;2024-01-11T13:22:26;19.00;;;7.20;;
68353;SDS011;55274;43.060;25.618;2024-01-11T13:24:53;14.90;;;8.00;;
68353;SDS011;55274;43.060;25.618;2024-01-11T13:27:18;13.23;;;6.68;;
68353;SDS011;55274;43.060;25.618;2024-01-11T13:29:44;13.75;;;6.40;;
68353;SDS011;55274;43.060;25.618;2024-01-11T13:32:10;14.95;;;7.85;;
68353;SDS011;55274;43.060;25.618;2024-01-11T13:34:36;15.10;;;6.68;;
68353;SDS011;55274;43.060;25.618;2024-01-11T13:37:02;14.57;;;6.80;;
68353;SDS011;55274;43.060;25.618;2024-01-11T13:39:28;11.32;;;6.32;;
68353;SDS011;55274;43.060;25.618;2024-01-11T13:41:54;14.23;;;7.10;;
68353;SDS011;55274;43.060;25.618;2024-01-11T13:44:20;15.13;;;7.68;;
68353;SDS011;55274;43.060;25.618;2024-01-11T13:46:46;17.30;;;8.05;;
68353;SDS011;55274;43.060;25.618;2024-01-11T13:49:11;16.15;;;8.57;;
68353;SDS011;55274;43.060;25.618;2024-01-11T13:51:37;23.45;;;11.32;;
68353;SDS011;55274;43.060;25.618;2024-01-11T13:54:03;20.05;;;9.90;;
68353;SDS011;55274;43.060;25.618;2024-01-11T13:56:29;19.23;;;9.75;;
68353;SDS011;55274;43.060;25.618;2024-01-11T13:58:55;20.90;;;10.20;;
68353;SDS011;55274;43.060;25.618;2024-01-11T14:01:21;19.90;;;10.25;;
68353;SDS011;55274;43.060;25.618;2024-01-11T14:03:47;19.10;;;8.88;;
68353;SDS011;55274;43.060;25.618;2024-01-11T14:06:13;20.42;;;9.77;;
68353;SDS011;55274;43.060;25.618;2024-01-11T14:08:39;27.42;;;10.65;;
68353;SDS011;55274;43.060;25.618;2024-01-11T14:11:06;20.70;;;9.95;;
68353;SDS011;55274;43.060;25.618;2024-01-11T14:13:32;24.35;;;10.25;;
68353;SDS011;55274;43.060;25.618;2024-01-11T14:16:00;24.70;;;12.05;;
68353;SDS011;55274;43.060;25.618;2024-01-11T14:18:26;23.67;;;11.15;;
68353;SDS011;55274;43.060;25.618;2024-01-11T14:20:52;23.77;;;10.60;;